sensor_id;sensor_type;location;lat;lon;timestamp;temperature;humidity
21393;DHT22;10857;52.228;21.026;2023-03-23T07:25:00;12.60;99.90
21393;DHT22;10857;52.228;21.026;2023-03-23T07:27:37;12.80;99.90
21393;DHT22;10857;52.228;21.026;2023-03-23T07:30:04;12.90;99.90
21393;DHT22;10857;52.228;21.026;2023-03-23T07:32:31;13.00;99.90
21393;DHT22;10857;52.228;21.026;2023-03-23T07:34:57;13.00;99.90
21393;DHT22;10857;52.228;21.026;2023-03-23T07:37:53;13.20;99.90
21393;DHT22;10857;52.228;21.026;2023-03-23T07:40:19;13.20;99.90
21393;DHT22;10857;52.228;21.026;2023-03-23T07:42:54;13.30;99.90
21393;DHT22;10857;52.228;21.026;2023-03-23T07:45:40;13.30;99.90
21393;DHT22;10857;52.228;21.026;2023-03-23T07:48:06;13.40;99.90
21393;DHT22;10857;52.228;21.026;2023-03-23T07:50:32;13.40;99.90
21393;DHT22;10857;52.228;21.026;2023-03-23T07:53:01;13.40;99.90
21393;DHT22;10857;52.228;21.026;2023-03-23T07:55:30;13.50;99.90
21393;DHT22;10857;52.228;21.026;2023-03-23T07:58:11;13.60;99.90
21393;DHT22;10857;52.228;21.026;2023-03-23T08:00:44;13.70;99.90
21393;DHT22;10857;52.228;21.026;2023-03-23T08:03:11;13.80;99.90
21393;DHT22;10857;52.228;21.026;2023-03-23T08:05:52;13.80;99.90
21393;DHT22;10857;52.228;21.026;2023-03-23T08:08:37;13.90;99.90
21393;DHT22;10857;52.228;21.026;2023-03-23T08:11:06;13.90;99.90
21393;DHT22;10857;52.228;21.026;2023-03-23T08:13:50;14.00;99.90
21393;DHT22;10857;52.228;21.026;2023-03-23T08:16:33;14.00;99.90
21393;DHT22;10857;52.228;21.026;2023-03-23T08:19:02;14.20;99.90
21393;DHT22;10857;52.228;21.026;2023-03-23T08:22:00;14.20;99.90
21393;DHT22;10857;52.228;21.026;2023-03-23T08:24:59;14.30;99.90
21393;DHT22;10857;52.228;21.026;2023-03-23T08:27:40;14.40;99.90
21393;DHT22;10857;52.228;21.026;2023-03-23T08:30:28;14.40;99.90
21393;DHT22;10857;52.228;21.026;2023-03-23T08:32:57;14.50;99.90
21393;DHT22;10857;52.228;21.026;2023-03-23T08:35:54;14.60;99.90
21393;DHT22;10857;52.228;21.026;2023-03-23T08:38:50;14.70;99.90
21393;DHT22;10857;52.228;21.026;2023-03-23T08:41:37;14.70;99.90
21393;DHT22;10857;52.228;21.026;2023-03-23T08:44:14;14.80;99.90
21393;DHT22;10857;52.228;21.026;2023-03-23T08:47:02;14.80;99.90
21393;DHT22;10857;52.228;21.026;2023-03-23T08:49:49;14.80;99.90
21393;DHT22;10857;52.228;21.026;2023-03-23T08:52:49;14.90;99.90
21393;DHT22;10857;52.228;21.026;2023-03-23T08:55:22;15.00;99.90
21393;DHT22;10857;52.228;21.026;2023-03-23T08:57:59;15.20;99.90
21393;DHT22;10857;52.228;21.026;2023-03-23T09:00:58;15.20;99.90
21393;DHT22;10857;52.228;21.026;2023-03-23T09:03:52;15.20;99.90
21393;DHT22;10857;52.228;21.026;2023-03-23T09:06:40;15.20;99.90
21393;DHT22;10857;52.228;21.026;2023-03-23T09:09:06;15.20;99.90
21393;DHT22;10857;52.228;21.026;2023-03-23T09:11:33;15.30;99.90
21393;DHT22;10857;52.228;21.026;2023-03-23T09:14:00;15.30;99.90
21393;DHT22;10857;52.228;21.026;2023-03-23T09:16:26;15.30;99.90
21393;DHT22;10857;52.228;21.026;2023-03-23T09:18:54;15.40;99.90
21393;DHT22;10857;52.228;21.026;2023-03-23T09:21:21;15.30;99.90
21393;DHT22;10857;52.228;21.026;2023-03-23T09:23:47;15.30;99.90
21393;DHT22;10857;52.228;21.026;2023-03-23T09:26:14;15.30;99.90
21393;DHT22;10857;52.228;21.026;2023-03-23T09:28:40;15.40;99.90
21393;DHT22;10857;52.228;21.026;2023-03-23T09:31:06;15.40;99.90
21393;DHT22;10857;52.228;21.026;2023-03-23T09:33:32;15.40;99.90
21393;DHT22;10857;52.228;21.026;2023-03-23T09:36:01;15.40;99.90
21393;DHT22;10857;52.228;21.026;2023-03-23T09:38:28;15.50;99.90
21393;DHT22;10857;52.228;21.026;2023-03-23T09:41:24;15.60;99.90
21393;DHT22;10857;52.228;21.026;2023-03-23T09:49:48;15.90;99.90
21393;DHT22;10857;52.228;21.026;2023-03-23T09:52:18;16.00;99.90
21393;DHT22;10857;52.228;21.026;2023-03-23T09:54:51;16.10;99.90
21393;DHT22;10857;52.228;21.026;2023-03-23T09:57:31;16.10;99.90
21393;DHT22;10857;52.228;21.026;2023-03-23T10:03:06;16.40;99.90
21393;DHT22;10857;52.228;21.026;2023-03-23T10:05:40;16.40;99.90
21393;DHT22;10857;52.228;21.026;2023-03-23T10:08:15;16.60;99.90
21393;DHT22;10857;52.228;21.026;2023-03-23T10:16:04;16.80;99.90
21393;DHT22;10857;52.228;21.026;2023-03-23T10:18:49;16.90;99.90
21393;DHT22;10857;52.228;21.026;2023-03-23T10:21:22;17.00;99.90
21393;DHT22;10857;52.228;21.026;2023-03-23T10:23:56;17.20;99.90
21393;DHT22;10857;52.228;21.026;2023-03-23T10:26:39;17.30;99.90
21393;DHT22;10857;52.228;21.026;2023-03-23T10:31:45;17.50;99.90
21393;DHT22;10857;52.228;21.026;2023-03-23T10:37:12;17.60;99.90
21393;DHT22;10857;52.228;21.026;2023-03-23T10:39:48;17.60;99.90
21393;DHT22;10857;52.228;21.026;2023-03-23T10:42:31;17.60;99.90
21393;DHT22;10857;52.228;21.026;2023-03-23T10:45:00;17.80;99.90
21393;DHT22;10857;52.228;21.026;2023-03-23T10:47:37;17.90;99.90
21393;DHT22;10857;52.228;21.026;2023-03-23T10:50:06;17.90;99.90
21393;DHT22;10857;52.228;21.026;2023-03-23T10:52:39;17.80;99.90
21393;DHT22;10857;52.228;21.026;2023-03-23T10:55:10;17.90;99.90
21393;DHT22;10857;52.228;21.026;2023-03-23T10:57:38;17.80;99.90
21393;DHT22;10857;52.228;21.026;2023-03-23T11:00:23;17.80;99.90
21393;DHT22;10857;52.228;21.026;2023-03-23T11:03:20;17.80;99.90
21393;DHT22;10857;52.228;21.026;2023-03-23T11:05:52;17.80;99.90
21393;DHT22;10857;52.228;21.026;2023-03-23T11:08:24;17.80;99.90
21393;DHT22;10857;52.228;21.026;2023-03-23T11:11:11;17.90;99.90
21393;DHT22;10857;52.228;21.026;2023-03-23T11:13:49;17.80;99.90
21393;DHT22;10857;52.228;21.026;2023-03-23T11:18:53;17.80;99.90
21393;DHT22;10857;52.228;21.026;2023-03-23T11:21:21;17.80;99.90
21393;DHT22;10857;52.228;21.026;2023-03-23T11:23:57;17.90;99.90
21393;DHT22;10857;52.228;21.026;2023-03-23T11:26:32;17.90;99.90
21393;DHT22;10857;52.228;21.026;2023-03-23T11:31:45;18.20;99.90
21393;DHT22;10857;52.228;21.026;2023-03-23T11:34:40;18.50;99.90
21393;DHT22;10857;52.228;21.026;2023-03-23T11:39:53;18.80;99.90
21393;DHT22;10857;52.228;21.026;2023-03-23T11:45:36;18.70;99.90
21393;DHT22;10857;52.228;21.026;2023-03-23T11:48:18;18.60;99.90
21393;DHT22;10857;52.228;21.026;2023-03-23T11:51:08;18.70;99.90
21393;DHT22;10857;52.228;21.026;2023-03-23T11:53:59;18.90;99.90
21393;DHT22;10857;52.228;21.026;2023-03-23T11:56:39;18.90;99.90
21393;DHT22;10857;52.228;21.026;2023-03-23T11:59:14;19.00;99.90
21393;DHT22;10857;52.228;21.026;2023-03-23T12:01:52;19.10;99.90
21393;DHT22;10857;52.228;21.026;2023-03-23T12:13:02;19.10;99.90
21393;DHT22;10857;52.228;21.026;2023-03-23T12:15:40;19.20;99.90
21393;DHT22;10857;52.228;21.026;2023-03-23T12:26:39;19.10;99.90
21393;DHT22;10857;52.228;21.026;2023-03-23T12:29:26;19.00;99.90
21393;DHT22;10857;52.228;21.026;2023-03-23T12:32:20;19.00;99.90
21393;DHT22;10857;52.228;21.026;2023-03-23T12:46:02;19.30;99.90
21393;DHT22;10857;52.228;21.026;2023-03-23T12:53:52;19.00;99.90
21393;DHT22;10857;52.228;21.026;2023-03-23T12:56:32;19.00;99.90
21393;DHT22;10857;52.228;21.026;2023-03-23T13:01:35;19.00;99.90
21393;DHT22;10857;52.228;21.026;2023-03-23T13:04:13;19.00;99.90
21393;DHT22;10857;52.228;21.026;2023-03-23T13:06:45;19.00;99.90
21393;DHT22;10857;52.228;21.026;2023-03-23T13:09:24;19.00;99.90
21393;DHT22;10857;52.228;21.026;2023-03-23T13:11:55;18.90;99.90
21393;DHT22;10857;52.228;21.026;2023-03-23T13:26:00;18.80;99.90
21393;DHT22;10857;52.228;21.026;2023-03-23T13:28:29;18.80;99.90
21393;DHT22;10857;52.228;21.026;2023-03-23T13:33:32;18.70;99.90
21393;DHT22;10857;52.228;21.026;2023-03-23T13:36:07;18.70;99.90
21393;DHT22;10857;52.228;21.026;2023-03-23T13:38:33;18.60;99.90
21393;DHT22;10857;52.228;21.026;2023-03-23T13:41:09;18.60;99.90
21393;DHT22;10857;52.228;21.026;2023-03-23T13:43:37;18.60;99.90
21393;DHT22;10857;52.228;21.026;2023-03-23T13:48:45;18.60;99.90
21393;DHT22;10857;52.228;21.026;2023-03-23T13:56:41;18.50;99.90
21393;DHT22;10857;52.228;21.026;2023-03-23T13:59:45;18.60;99.90
21393;DHT22;10857;52.228;21.026;2023-03-23T14:02:31;18.60;99.90
21393;DHT22;10857;52.228;21.026;2023-03-23T14:05:07;18.40;99.90
21393;DHT22;10857;52.228;21.026;2023-03-23T14:07:54;18.40;99.90
21393;DHT22;10857;52.228;21.026;2023-03-23T14:10:21;18.20;99.90
21393;DHT22;10857;52.228;21.026;2023-03-23T14:12:50;18.20;99.90
21393;DHT22;10857;52.228;21.026;2023-03-23T14:15:18;18.20;99.90
21393;DHT22;10857;52.228;21.026;2023-03-23T14:17:45;18.00;99.90
21393;DHT22;10857;52.228;21.026;2023-03-23T14:20:31;18.00;99.90
21393;DHT22;10857;52.228;21.026;2023-03-23T14:23:00;18.00;99.90
21393;DHT22;10857;52.228;21.026;2023-03-23T14:25:29;17.90;99.90
21393;DHT22;10857;52.228;21.026;2023-03-23T14:27:56;17.80;99.90
21393;DHT22;10857;52.228;21.026;2023-03-23T14:30:26;17.70;99.90
21393;DHT22;10857;52.228;21.026;2023-03-23T14:33:02;17.60;99.90
21393;DHT22;10857;52.228;21.026;2023-03-23T14:35:34;17.60;99.90
21393;DHT22;10857;52.228;21.026;2023-03-23T14:38:01;17.60;99.90
21393;DHT22;10857;52.228;21.026;2023-03-23T14:40:28;17.60;99.90
21393;DHT22;10857;52.228;21.026;2023-03-23T14:42:56;17.60;99.90
21393;DHT22;10857;52.228;21.026;2023-03-23T14:45:23;17.60;99.90
21393;DHT22;10857;52.228;21.026;2023-03-23T14:50:31;17.30;99.90
21393;DHT22;10857;52.228;21.026;2023-03-23T14:55:43;17.30;99.90
21393;DHT22;10857;52.228;21.026;2023-03-23T14:58:14;17.20;99.90
21393;DHT22;10857;52.228;21.026;2023-03-23T15:00:57;17.20;99.90
21393;DHT22;10857;52.228;21.026;2023-03-23T15:03:25;17.30;99.90
21393;DHT22;10857;52.228;21.026;2023-03-23T15:05:56;17.30;99.90
21393;DHT22;10857;52.228;21.026;2023-03-23T15:08:25;17.20;99.90
21393;DHT22;10857;52.228;21.026;2023-03-23T15:13:34;17.10;99.90
21393;DHT22;10857;52.228;21.026;2023-03-23T15:16:18;17.00;99.90
21393;DHT22;10857;52.228;21.026;2023-03-23T15:19:06;17.10;99.90
21393;DHT22;10857;52.228;21.026;2023-03-23T15:27:04;17.00;99.90
21393;DHT22;10857;52.228;21.026;2023-03-23T15:29:49;17.00;99.90
21393;DHT22;10857;52.228;21.026;2023-03-23T15:32:30;16.90;99.90
21393;DHT22;10857;52.228;21.026;2023-03-23T15:34:57;16.80;99.90
21393;DHT22;10857;52.228;21.026;2023-03-23T15:37:29;16.80;99.90
21393;DHT22;10857;52.228;21.026;2023-03-23T15:39:57;16.70;99.90
21393;DHT22;10857;52.228;21.026;2023-03-23T15:42:32;16.70;99.90
21393;DHT22;10857;52.228;21.026;2023-03-23T15:45:22;16.70;99.90
21393;DHT22;10857;52.228;21.026;2023-03-23T15:47:49;16.60;99.90
21393;DHT22;10857;52.228;21.026;2023-03-23T15:52:51;16.60;99.90
21393;DHT22;10857;52.228;21.026;2023-03-23T15:55:34;16.60;99.90
21393;DHT22;10857;52.228;21.026;2023-03-23T15:58:01;16.60;99.90
21393;DHT22;10857;52.228;21.026;2023-03-23T16:00:31;16.50;99.90
21393;DHT22;10857;52.228;21.026;2023-03-23T16:03:00;16.50;99.90
21393;DHT22;10857;52.228;21.026;2023-03-23T16:05:28;16.50;99.90
21393;DHT22;10857;52.228;21.026;2023-03-23T16:07:55;16.50;99.90
21393;DHT22;10857;52.228;21.026;2023-03-23T16:10:24;16.50;99.90
21393;DHT22;10857;52.228;21.026;2023-03-23T16:12:51;16.60;99.90
21393;DHT22;10857;52.228;21.026;2023-03-23T16:15:20;16.50;99.90
21393;DHT22;10857;52.228;21.026;2023-03-23T16:17:47;16.50;99.90
21393;DHT22;10857;52.228;21.026;2023-03-23T16:20:20;16.40;99.90
21393;DHT22;10857;52.228;21.026;2023-03-23T16:22:49;16.40;99.90
21393;DHT22;10857;52.228;21.026;2023-03-23T16:25:17;16.20;99.90
21393;DHT22;10857;52.228;21.026;2023-03-23T16:27:45;16.20;99.90
21393;DHT22;10857;52.228;21.026;2023-03-23T16:30:21;16.20;99.90
21393;DHT22;10857;52.228;21.026;2023-03-23T16:32:49;16.20;99.90
21393;DHT22;10857;52.228;21.026;2023-03-23T16:35:17;16.10;99.90
21393;DHT22;10857;52.228;21.026;2023-03-23T16:37:53;16.00;99.90
21393;DHT22;10857;52.228;21.026;2023-03-23T16:40:38;15.90;99.90
21393;DHT22;10857;52.228;21.026;2023-03-23T16:43:05;15.80;99.90
21393;DHT22;10857;52.228;21.026;2023-03-23T16:45:36;15.80;99.90
21393;DHT22;10857;52.228;21.026;2023-03-23T16:48:03;15.80;99.90
21393;DHT22;10857;52.228;21.026;2023-03-23T16:50:31;15.60;99.90
21393;DHT22;10857;52.228;21.026;2023-03-23T16:52:58;15.50;99.90
21393;DHT22;10857;52.228;21.026;2023-03-23T16:55:25;15.60;99.90
21393;DHT22;10857;52.228;21.026;2023-03-23T16:57:54;15.60;99.90
21393;DHT22;10857;52.228;21.026;2023-03-23T17:00:39;15.60;99.90
21393;DHT22;10857;52.228;21.026;2023-03-23T17:03:06;15.50;99.90
21393;DHT22;10857;52.228;21.026;2023-03-23T17:05:35;15.60;99.90
21393;DHT22;10857;52.228;21.026;2023-03-23T17:08:03;15.60;99.90
21393;DHT22;10857;52.228;21.026;2023-03-23T17:10:30;15.50;99.90
21393;DHT22;10857;52.228;21.026;2023-03-23T17:12:57;15.40;99.90
21393;DHT22;10857;52.228;21.026;2023-03-23T17:15:24;15.40;99.90
21393;DHT22;10857;52.228;21.026;2023-03-23T17:17:52;15.40;99.90
21393;DHT22;10857;52.228;21.026;2023-03-23T17:20:21;15.40;99.90
21393;DHT22;10857;52.228;21.026;2023-03-23T17:22:48;15.20;99.90
21393;DHT22;10857;52.228;21.026;2023-03-23T17:25:15;15.20;99.90
21393;DHT22;10857;52.228;21.026;2023-03-23T17:27:42;15.10;99.90
21393;DHT22;10857;52.228;21.026;2023-03-23T17:30:10;15.10;99.90
21393;DHT22;10857;52.228;21.026;2023-03-23T17:32:37;15.10;99.90
21393;DHT22;10857;52.228;21.026;2023-03-23T17:35:06;15.10;99.90
21393;DHT22;10857;52.228;21.026;2023-03-23T17:37:33;15.10;99.90
21393;DHT22;10857;52.228;21.026;2023-03-23T17:40:01;15.00;99.90
21393;DHT22;10857;52.228;21.026;2023-03-23T17:42:29;15.10;99.90
21393;DHT22;10857;52.228;21.026;2023-03-23T17:44:56;15.10;99.90
21393;DHT22;10857;52.228;21.026;2023-03-23T17:47:24;15.10;99.90
21393;DHT22;10857;52.228;21.026;2023-03-23T17:49:51;15.20;99.90
21393;DHT22;10857;52.228;21.026;2023-03-23T17:52:18;15.20;99.90
21393;DHT22;10857;52.228;21.026;2023-03-23T17:54:45;15.20;99.90
21393;DHT22;10857;52.228;21.026;2023-03-23T17:57:12;15.20;99.90
21393;DHT22;10857;52.228;21.026;2023-03-23T17:59:38;15.20;99.90
21393;DHT22;10857;52.228;21.026;2023-03-23T18:02:06;15.10;99.90
21393;DHT22;10857;52.228;21.026;2023-03-23T18:04:34;15.00;99.90
21393;DHT22;10857;52.228;21.026;2023-03-23T18:07:01;15.10;99.90
21393;DHT22;10857;52.228;21.026;2023-03-23T18:09:28;15.20;99.90
21393;DHT22;10857;52.228;21.026;2023-03-23T18:11:55;15.10;99.90
21393;DHT22;10857;52.228;21.026;2023-03-23T18:14:22;15.20;99.90
21393;DHT22;10857;52.228;21.026;2023-03-23T18:16:49;15.10;99.90
21393;DHT22;10857;52.228;21.026;2023-03-23T18:19:16;15.10;99.90
21393;DHT22;10857;52.228;21.026;2023-03-23T18:21:43;15.20;99.90
21393;DHT22;10857;52.228;21.026;2023-03-23T18:24:12;15.10;99.90
21393;DHT22;10857;52.228;21.026;2023-03-23T18:26:39;15.20;99.90
21393;DHT22;10857;52.228;21.026;2023-03-23T18:29:06;15.20;99.90
21393;DHT22;10857;52.228;21.026;2023-03-23T18:31:33;15.20;99.90
21393;DHT22;10857;52.228;21.026;2023-03-23T18:34:06;15.10;99.90
21393;DHT22;10857;52.228;21.026;2023-03-23T18:36:33;15.10;99.90
21393;DHT22;10857;52.228;21.026;2023-03-23T18:39:00;15.10;99.90
21393;DHT22;10857;52.228;21.026;2023-03-23T18:41:27;15.10;99.90
21393;DHT22;10857;52.228;21.026;2023-03-23T18:43:54;15.10;99.90
21393;DHT22;10857;52.228;21.026;2023-03-23T18:46:23;15.20;99.90
21393;DHT22;10857;52.228;21.026;2023-03-23T18:48:50;15.20;99.90
21393;DHT22;10857;52.228;21.026;2023-03-23T18:51:17;15.20;99.90
21393;DHT22;10857;52.228;21.026;2023-03-23T18:53:44;15.20;99.90
21393;DHT22;10857;52.228;21.026;2023-03-23T18:56:14;15.20;99.90
21393;DHT22;10857;52.228;21.026;2023-03-23T18:58:43;15.20;99.90
21393;DHT22;10857;52.228;21.026;2023-03-23T19:01:15;15.20;99.90
21393;DHT22;10857;52.228;21.026;2023-03-23T19:03:43;15.30;99.90
21393;DHT22;10857;52.228;21.026;2023-03-23T19:06:18;15.30;99.90
21393;DHT22;10857;52.228;21.026;2023-03-23T19:08:46;15.30;99.90
21393;DHT22;10857;52.228;21.026;2023-03-23T19:11:14;15.30;99.90
21393;DHT22;10857;52.228;21.026;2023-03-23T19:13:41;15.40;99.90
21393;DHT22;10857;52.228;21.026;2023-03-23T19:16:27;15.40;99.90
21393;DHT22;10857;52.228;21.026;2023-03-23T19:18:54;15.40;99.90
21393;DHT22;10857;52.228;21.026;2023-03-23T19:21:20;15.30;99.90
21393;DHT22;10857;52.228;21.026;2023-03-23T19:23:52;15.30;99.90
21393;DHT22;10857;52.228;21.026;2023-03-23T19:26:27;15.30;99.90
21393;DHT22;10857;52.228;21.026;2023-03-23T19:28:54;15.30;99.90
21393;DHT22;10857;52.228;21.026;2023-03-23T19:31:24;15.30;99.90
21393;DHT22;10857;52.228;21.026;2023-03-23T19:33:52;15.30;99.90
21393;DHT22;10857;52.228;21.026;2023-03-23T19:36:20;15.20;99.90
21393;DHT22;10857;52.228;21.026;2023-03-23T19:38:48;15.20;99.90
21393;DHT22;10857;52.228;21.026;2023-03-23T19:41:17;15.20;99.90
21393;DHT22;10857;52.228;21.026;2023-03-23T19:43:45;15.20;99.90
21393;DHT22;10857;52.228;21.026;2023-03-23T19:46:12;15.10;99.90
21393;DHT22;10857;52.228;21.026;2023-03-23T19:48:40;15.10;99.90
21393;DHT22;10857;52.228;21.026;2023-03-23T19:51:09;15.10;99.90
21393;DHT22;10857;52.228;21.026;2023-03-23T19:53:37;15.20;99.90
21393;DHT22;10857;52.228;21.026;2023-03-23T19:56:13;15.10;99.90
21393;DHT22;10857;52.228;21.026;2023-03-23T19:58:40;15.10;99.90
21393;DHT22;10857;52.228;21.026;2023-03-23T20:01:07;15.10;99.90
21393;DHT22;10857;52.228;21.026;2023-03-23T20:03:35;15.10;99.90
21393;DHT22;10857;52.228;21.026;2023-03-23T20:06:06;15.10;99.90
21393;DHT22;10857;52.228;21.026;2023-03-23T20:08:39;15.10;99.90
21393;DHT22;10857;52.228;21.026;2023-03-23T20:11:14;15.10;99.90
21393;DHT22;10857;52.228;21.026;2023-03-23T20:13:44;15.10;99.90
21393;DHT22;10857;52.228;21.026;2023-03-23T20:16:11;15.00;99.90
21393;DHT22;10857;52.228;21.026;2023-03-23T20:18:38;15.00;99.90
21393;DHT22;10857;52.228;21.026;2023-03-23T20:23:57;14.90;99.90
21393;DHT22;10857;52.228;21.026;2023-03-23T20:26:30;14.90;99.90
21393;DHT22;10857;52.228;21.026;2023-03-23T20:28:58;14.90;99.90
21393;DHT22;10857;52.228;21.026;2023-03-23T20:31:29;14.90;99.90
21393;DHT22;10857;52.228;21.026;2023-03-23T20:34:07;14.90;99.90
21393;DHT22;10857;52.228;21.026;2023-03-23T20:36:37;14.90;99.90
21393;DHT22;10857;52.228;21.026;2023-03-23T20:39:09;14.90;99.90
21393;DHT22;10857;52.228;21.026;2023-03-23T20:41:37;14.90;99.90
21393;DHT22;10857;52.228;21.026;2023-03-23T20:44:07;14.90;99.90
21393;DHT22;10857;52.228;21.026;2023-03-23T20:46:34;15.00;99.90
21393;DHT22;10857;52.228;21.026;2023-03-23T20:49:02;14.90;99.90
21393;DHT22;10857;52.228;21.026;2023-03-23T20:51:31;14.90;99.90
21393;DHT22;10857;52.228;21.026;2023-03-23T20:54:00;14.90;99.90
21393;DHT22;10857;52.228;21.026;2023-03-23T20:56:27;14.90;99.90
21393;DHT22;10857;52.228;21.026;2023-03-23T20:58:54;14.80;99.90
21393;DHT22;10857;52.228;21.026;2023-03-23T21:01:21;14.80;99.90
21393;DHT22;10857;52.228;21.026;2023-03-23T21:03:49;14.80;99.90
21393;DHT22;10857;52.228;21.026;2023-03-23T21:06:19;14.90;99.90
21393;DHT22;10857;52.228;21.026;2023-03-23T21:08:46;14.80;99.90
21393;DHT22;10857;52.228;21.026;2023-03-23T21:11:17;14.80;99.90
21393;DHT22;10857;52.228;21.026;2023-03-23T21:13:45;14.90;99.90
21393;DHT22;10857;52.228;21.026;2023-03-23T21:16:12;14.90;99.90
21393;DHT22;10857;52.228;21.026;2023-03-23T21:18:39;14.80;99.90
21393;DHT22;10857;52.228;21.026;2023-03-23T21:21:07;14.80;99.90
21393;DHT22;10857;52.228;21.026;2023-03-23T21:23:38;14.80;99.90
21393;DHT22;10857;52.228;21.026;2023-03-23T21:26:14;14.80;99.90
21393;DHT22;10857;52.228;21.026;2023-03-23T21:28:46;14.70;99.90
21393;DHT22;10857;52.228;21.026;2023-03-23T21:31:15;14.70;99.90
21393;DHT22;10857;52.228;21.026;2023-03-23T21:33:43;14.70;99.90
21393;DHT22;10857;52.228;21.026;2023-03-23T21:36:10;14.70;99.90
21393;DHT22;10857;52.228;21.026;2023-03-23T21:38:37;14.70;99.90
21393;DHT22;10857;52.228;21.026;2023-03-23T21:41:11;14.60;99.90
21393;DHT22;10857;52.228;21.026;2023-03-23T21:43:38;14.60;99.90
